Aspen-Pitkin Co,Sardy Field Aspen US
ICAO: KASE
IATA: ASE
Category: Medium
Scheduled Services: Yes

Elevation: 7820 ft
TransAlt. 18000 ft.

Airport Communications:
ATIS:120.4
CLNC DEL:123.75
APP/DEP:123.8
CTAF:118.85
GND:121.9
TWR:118.85
UNICOM:122.95

KASE Zoom In..

Runways:

(A) RW 15 length 8006 ft width 100 ft
LOC 111.15 / hdg 151

(B) RW 33 length 8006 ft width 100 ft
LOC 111.15 / hdg 331

Location; KASE
Day. 24 / Time. 01.53 Zulu
* Altimeter: 30.32
* Temperature: -08° c. -17.6°f.
* Wind from: 210° Speed 07 kn.
Dewpoint: -13° c.
Visibility: 10 Statute Miles.
Clouds: Clear (automated report).

KASE 240153Z 21007KT 10SM CLR M08/M13 A3032 RMK AO2 SLP314 T10831133


Wind From 210°
Speed 07 kn.

YouTube Music Video
 
jpsmedia.com for Web Design  worldairports.se 2018   terms of use